Terminal Aerodrome Forecast
Issued by NWS Denver/Boulder, CO

Home | Current Version | Previous Version | Text Only | Print | Product List | Glossary On
Versions: 1 2 3 4 5 6 7 8 9 10 11 12 13 14 15 16 17 18 19 20 21 22 23 24 25 26 27 28 29 30 31 32 33 34 35 36 37 38 39 40 41 42 43 44 45 46
000
FTUS45 KBOU 291514 AAB
TAFDEN
TAF AMD
KDEN 291514Z 2915/3018 02012KT 2SM -SN BR BKN009 OVC020
      TEMPO 2915/2918 3SM -SN BR SCT009 OVC020
     FM291800 01014G24KT P6SM -SN BKN015 OVC024
     FM292300 35012KT P6SM SCT025 BKN040
     FM300600 32010KT P6SM SCT040 BKN080
     FM301400 34014KT P6SM SCT080 BKN140=

USA.gov is the U.S. government's official web portal to all federal, state and local government web resources and services.